Time;durP1;ratioP1;P1;durP2;ratioP2;P2;SDS_P1;SDS_P2;PMS_P1;PMS_P2;Temp;Humidity;BMP_temperature;BMP_pressure;BME280_temperature;BME280_humidity;BME280_pressure;Samples;Min_cycle;Max_cycle;Signal;HPM_P1;HPM_P2
2021/12/05 00:19:59;;;;;;;0.30;0.30;;;3.10;99.90;;;;;;5090413;28;20415;-82
2021/12/05 00:22:32;;;;;;;0.30;0.27;;;3.10;99.90;;;;;;5090369;28;20502;-82
2021/12/05 00:25:01;;;;;;;0.30;0.20;;;3.10;99.90;;;;;;5090394;28;20531;-84
2021/12/05 00:27:35;;;;;;;0.40;0.40;;;3.10;99.90;;;;;;5090414;28;20962;-83
2021/12/05 00:30:21;;;;;;;0.30;0.30;;;3.10;99.90;;;;;;5089950;28;20978;-82
2021/12/05 00:32:52;;;;;;;0.30;0.20;;;3.10;99.90;;;;;;5090268;28;20481;-82
2021/12/05 00:35:57;;;;;;;0.30;0.20;;;3.10;99.90;;;;;;5089889;28;20428;-82
2021/12/05 00:41:35;;;;;;;0.30;0.30;;;3.20;99.90;;;;;;5063790;28;20459;-82
2021/12/05 00:47:07;;;;;;;0.30;0.30;;;3.10;99.90;;;;;;5085933;28;20566;-82
2021/12/05 00:52:37;;;;;;;0.30;0.30;;;3.10;99.90;;;;;;5089128;28;20482;-82
2021/12/05 01:01:13;;;;;;;0.30;0.30;;;3.00;99.90;;;;;;5042568;28;20445;-82
2021/12/05 01:06:51;;;;;;;0.30;0.20;;;2.90;99.90;;;;;;5075995;28;20432;-82
2021/12/05 01:09:33;;;;;;;0.30;0.30;;;3.00;99.90;;;;;;5076057;28;20429;-82
2021/12/05 01:12:30;;;;;;;0.30;0.20;;;3.00;99.90;;;;;;5076073;28;20779;-82
2021/12/05 01:15:04;;;;;;;0.30;0.20;;;3.00;99.90;;;;;;5075983;28;20437;-82
2021/12/05 01:17:37;;;;;;;0.30;0.27;;;3.00;99.90;;;;;;5075816;28;20465;-82
2021/12/05 01:20:09;;;;;;;0.30;0.20;;;2.90;99.90;;;;;;5075405;28;21010;-82
2021/12/05 01:22:41;;;;;;;0.30;0.30;;;2.90;99.90;;;;;;5075798;28;20441;-82
2021/12/05 01:25:19;;;;;;;0.40;0.33;;;2.90;99.90;;;;;;5075832;28;20495;-79
2021/12/05 01:27:52;;;;;;;0.30;0.30;;;3.00;99.90;;;;;;5075371;28;20433;-79
2021/12/05 01:30:28;;;;;;;0.30;0.30;;;3.00;99.90;;;;;;5076368;28;20863;-79
2021/12/05 01:33:03;;;;;;;0.37;0.37;;;3.00;99.90;;;;;;5075277;28;20997;-79
2021/12/05 01:35:48;;;;;;;0.30;0.30;;;3.00;99.90;;;;;;5075234;28;20437;-82
2021/12/05 01:38:24;;;;;;;0.30;0.30;;;3.00;99.90;;;;;;5075395;28;20471;-82
2021/12/05 01:41:05;;;;;;;0.40;0.30;;;3.00;99.90;;;;;;5075339;28;20472;-82
2021/12/05 01:46:55;;;;;;;0.30;0.30;;;3.00;99.90;;;;;;5074944;28;20440;-82
2021/12/05 01:49:55;;;;;;;0.30;0.30;;;3.00;99.90;;;;;;5075184;28;20425;-83
2021/12/05 01:52:41;;;;;;;0.30;0.30;;;3.00;99.90;;;;;;5075217;28;20445;-82
2021/12/05 01:58:15;;;;;;;0.50;0.50;;;2.90;99.90;;;;;;5075064;28;20502;-82
2021/12/05 02:09:22;;;;;;;0.30;0.30;;;3.00;99.90;;;;;;5074738;28;20441;-82
2021/12/05 02:12:14;;;;;;;0.40;0.30;;;3.00;99.90;;;;;;5073877;28;20823;-82
2021/12/05 02:34:13;;;;;;;0.97;0.97;;;2.90;99.90;;;;;;5074506;28;20409;-84
2021/12/05 02:36:57;;;;;;;0.30;0.30;;;2.90;99.90;;;;;;5074332;28;20465;-83
2021/12/05 02:39:34;;;;;;;0.30;0.30;;;2.90;99.90;;;;;;5073991;28;20429;-83
2021/12/05 02:42:09;;;;;;;0.30;0.20;;;2.80;99.90;;;;;;5074184;28;20443;-83
2021/12/05 02:44:36;;;;;;;0.30;0.20;;;2.80;99.90;;;;;;5074202;28;20437;-83
2021/12/05 02:47:08;;;;;;;0.30;0.30;;;2.70;99.90;;;;;;5073563;28;21007;-82
2021/12/05 02:49:39;;;;;;;0.30;0.30;;;2.70;99.90;;;;;;5074101;28;20433;-83
2021/12/05 02:52:11;;;;;;;0.63;0.63;;;2.70;99.90;;;;;;5074040;28;20436;-83
2021/12/05 02:54:43;;;;;;;0.30;0.30;;;2.60;99.90;;;;;;5073996;28;20440;-82
2021/12/05 02:57:12;;;;;;;0.30;0.30;;;2.60;99.90;;;;;;5073898;28;20465;-83
2021/12/05 02:59:45;;;;;;;0.30;0.20;;;2.70;99.90;;;;;;5073843;28;20527;-83
2021/12/05 03:02:17;;;;;;;0.30;0.20;;;2.70;99.90;;;;;;5074115;28;20807;-82
2021/12/05 03:04:46;;;;;;;0.30;0.30;;;2.70;99.90;;;;;;5073565;28;20928;-82
2021/12/05 03:07:19;;;;;;;0.30;0.30;;;2.70;99.90;;;;;;5073736;28;20449;-82
2021/12/05 03:09:46;;;;;;;0.30;0.20;;;2.70;99.90;;;;;;5073972;28;20464;-83
2021/12/05 03:12:18;;;;;;;0.30;0.30;;;2.70;99.90;;;;;;5073765;28;20448;-82
2021/12/05 03:14:45;;;;;;;0.30;0.30;;;2.70;99.90;;;;;;5073725;28;20437;-82
2021/12/05 03:17:12;;;;;;;0.30;0.20;;;2.70;99.90;;;;;;5073667;28;20823;-83
2021/12/05 03:19:39;;;;;;;0.30;0.30;;;2.70;99.90;;;;;;5073516;28;20449;-82
2021/12/05 03:22:06;;;;;;;0.50;0.50;;;2.70;99.90;;;;;;5073349;28;20444;-82
2021/12/05 03:24:35;;;;;;;0.30;0.27;;;2.80;99.90;;;;;;5073507;28;20464;-82
2021/12/05 03:27:02;;;;;;;0.30;0.30;;;2.80;99.90;;;;;;5073594;28;20454;-83
2021/12/05 03:29:29;;;;;;;0.30;0.20;;;2.80;99.90;;;;;;5073488;28;20449;-83
2021/12/05 03:31:57;;;;;;;0.30;0.30;;;2.80;99.90;;;;;;5073218;28;20442;-82
2021/12/05 03:34:24;;;;;;;0.30;0.20;;;2.80;99.90;;;;;;5073209;28;20448;-83
2021/12/05 03:36:53;;;;;;;0.30;0.30;;;2.80;99.90;;;;;;5073125;28;20452;-83
2021/12/05 03:39:21;;;;;;;0.30;0.20;;;2.80;99.90;;;;;;5073325;28;20441;-83
2021/12/05 03:41:52;;;;;;;0.40;0.40;;;2.80;99.90;;;;;;5073315;28;20449;-83
2021/12/05 03:44:21;;;;;;;0.30;0.30;;;2.80;99.90;;;;;;5073400;28;20524;-82
2021/12/05 03:46:50;;;;;;;0.30;0.20;;;2.80;99.90;;;;;;5073050;28;20491;-83
2021/12/05 03:49:17;;;;;;;0.30;0.30;;;2.80;99.90;;;;;;5073284;28;20441;-82
2021/12/05 03:51:48;;;;;;;0.30;0.20;;;2.80;99.90;;;;;;5073214;28;20469;-82
2021/12/05 03:54:16;;;;;;;0.30;0.30;;;2.90;99.90;;;;;;5073233;28;20437;-82
2021/12/05 03:56:43;;;;;;;0.30;0.20;;;2.90;99.90;;;;;;5073267;28;20444;-82
2021/12/05 03:59:15;;;;;;;0.30;0.20;;;2.90;99.90;;;;;;5073140;28;20477;-82
2021/12/05 04:01:42;;;;;;;0.30;0.30;;;2.80;99.90;;;;;;5073170;28;20821;-83
2021/12/05 04:04:10;;;;;;;0.30;0.20;;;2.80;99.90;;;;;;5072944;28;20444;-82
2021/12/05 04:06:38;;;;;;;0.30;0.20;;;2.70;99.90;;;;;;5072911;28;20804;-82
2021/12/05 04:09:07;;;;;;;0.30;0.30;;;2.70;99.90;;;;;;5073073;28;20437;-83
2021/12/05 04:11:38;;;;;;;0.30;0.23;;;2.70;99.90;;;;;;5072705;28;20472;-82
2021/12/05 04:14:06;;;;;;;0.30;0.20;;;2.60;99.90;;;;;;5073074;28;20433;-83
2021/12/05 04:16:36;;;;;;;0.30;0.20;;;2.60;99.90;;;;;;5072807;28;20981;-82
2021/12/05 04:19:04;;;;;;;0.63;0.63;;;2.70;99.90;;;;;;5072652;28;20477;-82
2021/12/05 04:21:31;;;;;;;0.30;0.20;;;2.70;99.90;;;;;;5072585;28;20975;-82
2021/12/05 04:23:59;;;;;;;0.30;0.20;;;2.70;99.90;;;;;;5072975;28;20434;-83
2021/12/05 04:26:26;;;;;;;0.30;0.30;;;2.70;99.90;;;;;;5074699;28;20812;-82
2021/12/05 04:28:54;;;;;;;0.30;0.30;;;2.70;99.90;;;;;;5073294;28;20818;-82
2021/12/05 04:31:21;;;;;;;0.30;0.20;;;2.80;99.90;;;;;;5072847;28;20827;-82
2021/12/05 04:33:51;;;;;;;0.30;0.30;;;2.80;99.90;;;;;;5074193;28;20453;-84
2021/12/05 04:36:19;;;;;;;0.33;0.30;;;2.80;99.90;;;;;;5076696;28;20453;-85
2021/12/05 04:38:46;;;;;;;0.30;0.30;;;2.80;99.90;;;;;;5076582;28;20836;-85
2021/12/05 04:41:13;;;;;;;0.30;0.20;;;2.80;99.90;;;;;;5076313;28;20993;-84
2021/12/05 04:43:39;;;;;;;0.30;0.20;;;2.80;99.90;;;;;;5076499;28;20940;-87
2021/12/05 04:46:09;;;;;;;0.30;0.20;;;2.80;99.90;;;;;;5076427;28;20478;-84
2021/12/05 04:48:36;;;;;;;0.30;0.20;;;2.80;99.90;;;;;;5076610;28;20425;-85
2021/12/05 04:51:05;;;;;;;0.30;0.30;;;2.80;99.90;;;;;;5076370;28;20491;-85
2021/12/05 04:53:32;;;;;;;0.30;0.30;;;2.80;99.90;;;;;;5076399;28;20444;-84
2021/12/05 04:55:59;;;;;;;0.30;0.30;;;2.80;99.90;;;;;;5076233;28;20449;-85
2021/12/05 04:58:26;;;;;;;0.30;0.30;;;2.80;99.90;;;;;;5075855;28;21002;-84
2021/12/05 05:00:57;;;;;;;0.30;0.20;;;2.70;99.90;;;;;;5076185;28;20469;-84
2021/12/05 05:03:24;;;;;;;0.30;0.20;;;2.70;99.90;;;;;;5076150;28;20448;-85
2021/12/05 05:05:56;;;;;;;0.30;0.20;;;2.70;99.90;;;;;;5076074;28;20790;-85
2021/12/05 05:08:26;;;;;;;0.30;0.20;;;2.80;99.90;;;;;;5076132;28;20435;-84
2021/12/05 05:10:52;;;;;;;0.30;0.20;;;2.70;99.90;;;;;;5075950;28;20854;-84
2021/12/05 05:13:19;;;;;;;0.30;0.20;;;2.70;99.90;;;;;;5075977;28;20453;-85
2021/12/05 05:15:46;;;;;;;0.30;0.20;;;2.70;99.90;;;;;;5076023;28;20456;-85
2021/12/05 05:18:13;;;;;;;0.30;0.20;;;2.60;99.90;;;;;;5075899;28;20480;-85
2021/12/05 05:20:48;;;;;;;0.63;0.63;;;2.60;99.90;;;;;;5075739;28;20559;-84
2021/12/05 05:23:36;;;;;;;0.30;0.30;;;2.50;99.90;;;;;;5075876;28;20536;-84
2021/12/05 05:26:34;;;;;;;0.30;0.30;;;2.50;99.90;;;;;;5075712;28;20437;-84
2021/12/05 05:29:31;;;;;;;0.30;0.30;;;2.40;99.90;;;;;;5075463;28;20535;-85
2021/12/05 05:40:36;;;;;;;0.30;0.20;;;2.30;99.90;;;;;;5075315;28;20443;-79
2021/12/05 05:43:28;;;;;;;0.30;0.20;;;2.30;99.90;;;;;;5075088;28;20927;-79
2021/12/05 05:46:05;;;;;;;0.30;0.20;;;2.30;99.90;;;;;;5075205;28;20460;-79
2021/12/05 05:48:37;;;;;;;0.30;0.30;;;2.30;99.90;;;;;;5075306;28;20425;-79
2021/12/05 05:51:06;;;;;;;0.30;0.20;;;2.30;99.90;;;;;;5075168;28;20927;-79
2021/12/05 05:53:33;;;;;;;0.30;0.30;;;2.30;99.90;;;;;;5075166;28;20445;-79
2021/12/05 05:56:00;;;;;;;0.30;0.20;;;2.30;99.90;;;;;;5075119;28;20445;-79
2021/12/05 05:58:38;;;;;;;0.30;0.20;;;2.20;99.90;;;;;;5075010;28;20480;-79
2021/12/05 06:01:08;;;;;;;0.30;0.30;;;2.10;99.90;;;;;;5074962;28;20478;-79
2021/12/05 06:03:36;;;;;;;0.30;0.20;;;2.00;99.90;;;;;;5074699;28;20476;-79
2021/12/05 06:06:05;;;;;;;0.30;0.30;;;2.00;99.90;;;;;;5074938;28;20468;-79
2021/12/05 06:08:34;;;;;;;0.30;0.20;;;2.00;99.90;;;;;;5074906;28;20456;-79
2021/12/05 06:11:05;;;;;;;0.30;0.20;;;1.90;99.90;;;;;;5074752;28;20465;-79
2021/12/05 06:13:34;;;;;;;0.30;0.20;;;1.90;99.90;;;;;;5074850;28;20425;-79
2021/12/05 06:16:02;;;;;;;0.30;0.30;;;1.80;99.90;;;;;;5074730;28;20444;-79
2021/12/05 06:18:29;;;;;;;0.30;0.30;;;1.80;99.90;;;;;;5074603;28;20488;-79
2021/12/05 06:20:57;;;;;;;0.30;0.20;;;1.80;99.90;;;;;;5074570;28;20559;-79
2021/12/05 06:23:24;;;;;;;0.30;0.30;;;1.90;99.90;;;;;;5074601;28;20453;-79
2021/12/05 06:25:52;;;;;;;0.30;0.30;;;1.90;99.90;;;;;;5074529;28;20475;-79
2021/12/05 06:28:27;;;;;;;0.30;0.20;;;1.90;99.90;;;;;;5074492;28;20813;-79
2021/12/05 06:31:01;;;;;;;0.30;0.30;;;1.90;99.90;;;;;;5074402;28;20476;-79
2021/12/05 06:39:19;;;;;;;0.30;0.20;;;1.90;99.90;;;;;;5074315;28;20466;-79
2021/12/05 06:41:55;;;;;;;0.30;0.20;;;1.90;99.90;;;;;;5074169;28;20475;-78
2021/12/05 06:47:11;;;;;;;0.30;0.20;;;1.90;99.90;;;;;;5073886;28;20511;-79
2021/12/05 06:49:39;;;;;;;0.30;0.30;;;1.90;99.90;;;;;;5073673;28;20906;-79
2021/12/05 06:52:07;;;;;;;0.30;0.30;;;1.90;99.90;;;;;;5074035;28;20452;-79
2021/12/05 06:54:33;;;;;;;0.30;0.20;;;1.90;99.90;;;;;;5073728;28;20543;-79
2021/12/05 06:57:00;;;;;;;0.30;0.20;;;1.90;99.90;;;;;;5073444;28;20447;-79
2021/12/05 06:59:28;;;;;;;0.30;0.20;;;2.00;99.90;;;;;;5073759;28;20491;-79
2021/12/05 07:01:54;;;;;;;0.33;0.33;;;2.00;99.90;;;;;;5073840;28;20453;-79
2021/12/05 07:04:45;;;;;;;0.30;0.20;;;2.00;99.90;;;;;;5073830;28;20448;-79
2021/12/05 07:07:18;;;;;;;0.30;0.20;;;2.00;99.90;;;;;;5073466;28;20433;-80
2021/12/05 07:09:46;;;;;;;0.30;0.30;;;2.00;99.90;;;;;;5074426;28;20469;-79
2021/12/05 07:14:58;;;;;;;0.30;0.20;;;1.90;99.90;;;;;;5050898;28;20436;-79
2021/12/05 07:19:58;;;;;;;0.30;0.20;;;1.80;99.90;;;;;;5073450;28;20523;-79
2021/12/05 07:22:30;;;;;;;0.30;0.30;;;1.80;99.90;;;;;;5073529;28;20186;-79
2021/12/05 07:25:06;;;;;;;0.30;0.30;;;1.70;99.90;;;;;;5073527;28;20412;-79
2021/12/05 07:41:32;;;;;;;0.30;0.30;;;1.70;99.90;;;;;;5073145;28;20499;-79
2021/12/05 07:43:59;;;;;;;0.30;0.20;;;1.70;99.90;;;;;;5073367;28;20437;-79
2021/12/05 07:46:26;;;;;;;0.30;0.30;;;1.70;99.90;;;;;;5073041;28;20488;-79
2021/12/05 07:49:04;;;;;;;0.30;0.30;;;1.70;99.90;;;;;;5073102;28;20927;-79
2021/12/05 07:51:48;;;;;;;0.30;0.30;;;1.70;99.90;;;;;;5073230;28;21046;-79
2021/12/05 07:54:29;;;;;;;0.30;0.20;;;1.70;99.90;;;;;;5073311;28;20433;-78
2021/12/05 07:57:05;;;;;;;0.30;0.30;;;1.70;99.90;;;;;;5072993;28;20600;-79
2021/12/05 07:59:45;;;;;;;0.30;0.30;;;1.70;99.90;;;;;;5073108;28;20784;-79
2021/12/05 08:16:09;;;;;;;0.30;0.20;;;1.80;99.90;;;;;;5076939;28;20458;-85
2021/12/05 08:18:35;;;;;;;0.30;0.30;;;1.90;99.90;;;;;;5076896;28;20489;-85
2021/12/05 08:21:06;;;;;;;0.30;0.20;;;2.00;99.90;;;;;;5076994;28;20464;-85
2021/12/05 08:23:34;;;;;;;0.30;0.30;;;2.10;99.90;;;;;;5077216;28;20449;-85
2021/12/05 08:26:06;;;;;;;0.30;0.30;;;2.20;99.90;;;;;;5076934;28;20429;-85
2021/12/05 08:28:54;;;;;;;0.30;0.20;;;2.30;99.90;;;;;;5076879;28;20429;-85
2021/12/05 08:31:31;;;;;;;0.30;0.30;;;2.40;99.90;;;;;;5076725;28;20530;-85
2021/12/05 08:34:07;;;;;;;0.30;0.30;;;2.50;99.90;;;;;;5076579;28;20486;-85
2021/12/05 08:42:35;;;;;;;0.30;0.20;;;3.00;99.90;;;;;;5040080;28;20475;-85
2021/12/05 09:21:21;;;;;;;0.30;0.30;;;4.60;99.90;;;;;;5075237;28;20467;-82
2021/12/05 09:24:06;;;;;;;0.30;0.30;;;4.50;99.90;;;;;;5075375;28;20524;-83
2021/12/05 10:10:44;;;;;;;0.30;0.20;;;8.80;99.90;;;;;;5065542;28;20951;-77
2021/12/05 10:13:18;;;;;;;1.03;0.33;;;8.70;99.90;;;;;;5074825;28;20463;-77
2021/12/05 10:15:54;;;;;;;0.30;0.27;;;8.40;99.90;;;;;;5074778;28;20859;-77
2021/12/05 10:38:03;;;;;;;0.30;0.20;;;7.10;99.90;;;;;;5056249;28;20955;-77
2021/12/05 10:40:35;;;;;;;0.30;0.20;;;7.10;99.90;;;;;;5074146;28;20542;-77
2021/12/05 10:43:04;;;;;;;0.30;0.20;;;6.90;99.90;;;;;;5073943;28;20909;-77
2021/12/05 10:45:34;;;;;;;0.30;0.30;;;6.80;99.90;;;;;;5074259;28;20436;-79
2021/12/05 10:48:05;;;;;;;0.30;0.30;;;6.50;99.90;;;;;;5073772;28;20477;-77
2021/12/05 10:50:37;;;;;;;0.30;0.30;;;6.40;99.90;;;;;;5074056;28;20472;-77
2021/12/05 10:53:34;;;;;;;0.30;0.20;;;6.20;99.90;;;;;;5074122;28;20432;-77
2021/12/05 10:56:04;;;;;;;0.30;0.20;;;6.10;99.90;;;;;;5073666;28;20429;-77
2021/12/05 10:58:35;;;;;;;0.30;0.30;;;6.10;99.90;;;;;;5073603;28;20441;-77
2021/12/05 11:01:08;;;;;;;0.30;0.20;;;6.10;99.90;;;;;;5073839;28;20445;-77
2021/12/05 11:03:35;;;;;;;0.30;0.20;;;6.10;99.90;;;;;;5073834;28;20436;-77
2021/12/05 11:06:03;;;;;;;0.30;0.30;;;6.10;99.90;;;;;;5073577;28;20429;-77
2021/12/05 11:08:37;;;;;;;0.30;0.20;;;5.90;99.90;;;;;;5073832;28;20433;-77
2021/12/05 11:11:09;;;;;;;0.30;0.20;;;6.00;99.90;;;;;;5073378;28;21022;-78
2021/12/05 11:13:37;;;;;;;0.30;0.20;;;5.90;99.90;;;;;;5073758;28;20436;-77
2021/12/05 11:16:06;;;;;;;0.30;0.20;;;5.90;99.90;;;;;;5073787;28;20437;-85
2021/12/05 11:18:44;;;;;;;0.30;0.20;;;5.90;99.90;;;;;;5075214;28;20426;-80
2021/12/05 11:21:32;;;;;;;0.30;0.30;;;5.90;99.90;;;;;;5075970;28;20475;-81
2021/12/05 11:24:11;;;;;;;0.30;0.30;;;6.10;99.90;;;;;;5073672;28;20479;-80
2021/12/05 11:26:41;;;;;;;0.30;0.20;;;6.00;99.90;;;;;;5073333;28;20958;-80
2021/12/05 11:29:08;;;;;;;0.30;0.20;;;6.00;99.90;;;;;;5073458;28;20904;-84
2021/12/05 11:31:36;;;;;;;0.30;0.20;;;6.00;99.90;;;;;;5073688;28;20453;-81
2021/12/05 11:34:04;;;;;;;0.30;0.20;;;6.00;99.90;;;;;;5073245;28;20927;-82
2021/12/05 11:36:35;;;;;;;0.30;0.30;;;6.00;99.90;;;;;;5073747;28;20436;-81
2021/12/05 11:39:20;;;;;;;0.30;0.20;;;6.00;99.90;;;;;;5074088;28;20444;-82
2021/12/05 11:41:47;;;;;;;0.30;0.20;;;6.00;99.90;;;;;;5073405;28;20459;-82
2021/12/05 11:44:18;;;;;;;0.30;0.30;;;6.00;99.90;;;;;;5073313;28;20452;-82
2021/12/05 11:46:45;;;;;;;0.30;0.30;;;5.90;99.90;;;;;;5073129;28;20477;-82
2021/12/05 11:49:16;;;;;;;0.40;0.40;;;6.00;99.90;;;;;;5073021;28;20433;-82
2021/12/05 11:51:47;;;;;;;0.30;0.20;;;6.00;99.90;;;;;;5073295;28;20468;-82
2021/12/05 11:54:16;;;;;;;0.30;0.20;;;6.00;99.90;;;;;;5073574;28;20435;-82
2021/12/05 11:56:50;;;;;;;0.30;0.20;;;6.10;99.90;;;;;;5072958;28;20935;-82
2021/12/05 11:59:20;;;;;;;0.30;0.30;;;6.20;99.90;;;;;;5073227;28;20469;-82
2021/12/05 12:01:50;;;;;;;0.30;0.27;;;6.00;99.90;;;;;;5072940;28;20449;-82
2021/12/05 12:04:21;;;;;;;0.30;0.20;;;5.80;99.90;;;;;;5073516;28;20437;-82
2021/12/05 12:07:09;;;;;;;0.30;0.20;;;5.70;99.90;;;;;;5073368;28;20502;-82
2021/12/05 12:09:36;;;;;;;0.30;0.20;;;5.50;99.90;;;;;;5073326;28;20477;-82
2021/12/05 12:12:03;;;;;;;0.30;0.20;;;5.40;99.90;;;;;;5073311;28;20433;-82
2021/12/05 12:14:30;;;;;;;0.30;0.20;;;5.30;99.90;;;;;;5073194;28;20436;-82
2021/12/05 12:16:58;;;;;;;0.30;0.30;;;5.30;99.90;;;;;;5073090;28;20437;-81
2021/12/05 12:19:25;;;;;;;0.30;0.30;;;5.20;99.90;;;;;;5072621;28;21027;-81
2021/12/05 12:21:57;;;;;;;0.30;0.20;;;5.10;99.90;;;;;;5073615;28;20441;-82
2021/12/05 12:24:25;;;;;;;0.30;0.20;;;5.10;99.90;;;;;;5073057;28;20520;-82
2021/12/05 12:26:53;;;;;;;0.30;0.20;;;5.10;99.90;;;;;;5072991;28;20433;-82
2021/12/05 12:29:20;;;;;;;0.30;0.20;;;5.20;99.90;;;;;;5072719;28;20484;-81
2021/12/05 12:31:50;;;;;;;0.30;0.20;;;5.20;99.90;;;;;;5072907;28;20469;-82
2021/12/05 12:34:20;;;;;;;0.30;0.30;;;5.30;99.90;;;;;;5072915;28;20532;-81
2021/12/05 12:36:49;;;;;;;0.30;0.20;;;5.30;99.90;;;;;;5072737;28;20799;-82
2021/12/05 12:39:31;;;;;;;0.30;0.20;;;5.50;99.90;;;;;;5072446;28;20437;-82
2021/12/05 12:42:12;;;;;;;0.30;0.30;;;5.60;99.90;;;;;;5072559;28;20469;-82
2021/12/05 12:44:57;;;;;;;0.33;0.33;;;5.90;99.90;;;;;;5072794;28;20443;-82
2021/12/05 12:47:32;;;;;;;0.30;0.30;;;6.10;99.90;;;;;;5072480;28;20503;-82
2021/12/05 12:50:24;;;;;;;0.30;0.20;;;6.10;99.90;;;;;;5072668;28;20467;-83
2021/12/05 12:53:00;;;;;;;0.30;0.30;;;6.20;99.90;;;;;;5072759;28;20429;-82
2021/12/05 12:55:31;;;;;;;0.30;0.20;;;6.20;99.90;;;;;;5074625;28;20433;-82
2021/12/05 12:57:57;;;;;;;0.30;0.20;;;6.30;99.90;;;;;;5076364;28;20883;-82
2021/12/05 13:00:28;;;;;;;0.30;0.30;;;6.30;99.90;;;;;;5076158;28;20491;-83
2021/12/05 13:02:59;;;;;;;0.30;0.20;;;6.30;99.90;;;;;;5076249;28;20811;-83
2021/12/05 13:05:52;;;;;;;0.30;0.20;;;6.10;99.90;;;;;;5076170;28;20494;-83
2021/12/05 13:11:09;;;;;;;0.30;0.30;;;5.80;99.90;;;;;;5075863;28;20507;-83
2021/12/05 13:13:39;;;;;;;0.30;0.20;;;5.60;99.90;;;;;;5076032;28;20429;-82
2021/12/05 13:16:14;;;;;;;0.30;0.20;;;5.50;99.90;;;;;;5076018;28;20815;-83
2021/12/05 13:18:42;;;;;;;0.30;0.20;;;5.30;99.90;;;;;;5075715;28;20419;-83
2021/12/05 13:21:11;;;;;;;0.30;0.30;;;5.20;99.90;;;;;;5075749;28;20497;-83
2021/12/05 13:23:42;;;;;;;0.30;0.30;;;5.30;99.90;;;;;;5075838;28;20433;-83
2021/12/05 13:26:27;;;;;;;0.30;0.20;;;5.20;99.90;;;;;;5075788;28;20448;-83
2021/12/05 13:28:57;;;;;;;0.30;0.20;;;5.20;99.90;;;;;;5075849;28;20437;-83
2021/12/05 13:31:38;;;;;;;0.30;0.30;;;5.20;99.90;;;;;;5077979;28;20464;-83
2021/12/05 13:34:28;;;;;;;0.30;0.23;;;5.20;99.90;;;;;;5076899;28;20433;-83
2021/12/05 13:36:59;;;;;;;0.30;0.20;;;5.20;99.90;;;;;;5075396;28;20433;-84
2021/12/05 13:39:31;;;;;;;0.30;0.20;;;5.20;99.90;;;;;;5075765;28;20459;-83
2021/12/05 13:42:07;;;;;;;0.30;0.20;;;5.30;99.90;;;;;;5075540;28;20441;-83
2021/12/05 13:45:03;;;;;;;0.30;0.30;;;5.30;99.90;;;;;;5075221;28;20903;-84
2021/12/05 13:47:32;;;;;;;0.30;0.30;;;5.40;99.90;;;;;;5075054;28;20477;-83
2021/12/05 13:50:37;;;;;;;0.30;0.20;;;5.50;99.90;;;;;;5075324;28;20534;-83
2021/12/05 13:53:27;;;;;;;0.30;0.20;;;5.40;99.90;;;;;;5075354;28;20477;-84
2021/12/05 13:56:10;;;;;;;0.30;0.30;;;5.40;99.90;;;;;;5075198;28;20494;-83
2021/12/05 13:58:40;;;;;;;0.30;0.30;;;5.40;99.90;;;;;;5075210;28;20500;-85
2021/12/05 14:01:11;;;;;;;0.30;0.30;;;5.30;99.90;;;;;;5075150;28;20492;-83
2021/12/05 14:03:47;;;;;;;0.30;0.30;;;5.20;99.90;;;;;;5074718;28;20488;-83
2021/12/05 14:06:37;;;;;;;0.30;0.30;;;5.10;99.90;;;;;;5074533;28;20425;-83
2021/12/05 14:09:12;;;;;;;0.30;0.20;;;5.00;99.90;;;;;;5074147;28;20435;-83
2021/12/05 14:11:45;;;;;;;0.30;0.30;;;5.00;99.90;;;;;;5073884;28;20465;-83
2021/12/05 14:14:13;;;;;;;0.30;0.20;;;4.90;99.90;;;;;;5074580;28;20796;-83
2021/12/05 14:16:43;;;;;;;0.30;0.30;;;4.80;99.90;;;;;;5074770;28;20798;-83
2021/12/05 14:19:14;;;;;;;0.30;0.20;;;4.80;99.90;;;;;;5074799;28;20436;-83
2021/12/05 14:21:42;;;;;;;0.30;0.30;;;4.70;99.90;;;;;;5074615;28;20841;-83
2021/12/05 14:24:12;;;;;;;0.30;0.30;;;4.60;99.90;;;;;;5074686;28;20451;-82
2021/12/05 14:26:40;;;;;;;0.30;0.30;;;4.60;99.90;;;;;;5074642;28;20433;-83
2021/12/05 14:29:10;;;;;;;0.30;0.20;;;4.60;99.90;;;;;;5074248;28;20479;-82
2021/12/05 14:31:40;;;;;;;0.30;0.20;;;4.60;99.90;;;;;;5074415;28;20472;-82
2021/12/05 14:34:09;;;;;;;0.30;0.30;;;4.70;99.90;;;;;;5086860;28;20437;-83
2021/12/05 14:36:42;;;;;;;0.40;0.40;;;4.70;99.90;;;;;;5074389;28;20527;-83
2021/12/05 14:39:23;;;;;;;0.30;0.20;;;4.70;99.90;;;;;;5074391;28;20429;-83
2021/12/05 14:41:52;;;;;;;0.30;0.30;;;4.70;99.90;;;;;;5074284;28;20469;-83
2021/12/05 14:44:21;;;;;;;0.30;0.20;;;4.60;99.90;;;;;;5074309;28;20449;-83
2021/12/05 14:46:51;;;;;;;0.47;0.47;;;4.60;99.90;;;;;;5073838;28;20480;-82
2021/12/05 14:49:20;;;;;;;0.30;0.20;;;4.60;99.90;;;;;;5074141;28;20455;-83
2021/12/05 14:51:48;;;;;;;0.30;0.20;;;4.60;99.90;;;;;;5073723;28;21006;-82
2021/12/05 14:54:23;;;;;;;0.50;0.50;;;4.50;99.90;;;;;;5074096;28;20451;-83
2021/12/05 14:56:50;;;;;;;0.30;0.20;;;4.50;99.90;;;;;;5074110;28;20433;-82
2021/12/05 14:59:18;;;;;;;0.30;0.20;;;4.50;99.90;;;;;;5074017;28;20929;-82
2021/12/05 15:01:49;;;;;;;1.07;0.50;;;4.50;99.90;;;;;;5073616;28;20488;-82
2021/12/05 15:04:20;;;;;;;0.30;0.30;;;4.50;99.90;;;;;;5073581;28;20430;-82
2021/12/05 15:06:47;;;;;;;0.30;0.30;;;4.50;99.90;;;;;;5073875;28;20797;-82
2021/12/05 15:09:22;;;;;;;0.30;0.30;;;4.40;99.90;;;;;;5073546;28;20445;-82
2021/12/05 15:11:51;;;;;;;0.30;0.30;;;4.40;99.90;;;;;;5073715;28;20471;-82
2021/12/05 15:14:19;;;;;;;0.30;0.30;;;4.30;99.90;;;;;;5073720;28;20488;-82
2021/12/05 15:16:55;;;;;;;0.30;0.20;;;4.30;99.90;;;;;;5073315;28;20489;-82
2021/12/05 15:19:23;;;;;;;1.43;1.43;;;4.30;99.90;;;;;;5074513;28;20452;-82
2021/12/05 15:21:50;;;;;;;0.33;0.27;;;4.20;99.90;;;;;;5073224;28;21044;-82
2021/12/05 15:24:19;;;;;;;0.30;0.30;;;4.10;99.90;;;;;;5073589;28;20847;-83
2021/12/05 15:26:47;;;;;;;0.30;0.20;;;4.10;99.90;;;;;;5073628;28;20436;-83
2021/12/05 15:29:14;;;;;;;0.30;0.30;;;4.10;99.90;;;;;;5073536;28;20448;-83
2021/12/05 15:31:43;;;;;;;0.30;0.30;;;4.00;99.90;;;;;;5073219;28;20464;-83
2021/12/05 15:34:22;;;;;;;0.30;0.30;;;4.00;99.90;;;;;;5073163;28;20935;-83
2021/12/05 15:36:49;;;;;;;0.30;0.30;;;4.00;99.90;;;;;;5073432;28;20970;-83
2021/12/05 15:39:21;;;;;;;0.30;0.30;;;4.00;99.90;;;;;;5073440;28;20456;-83
2021/12/05 15:41:49;;;;;;;0.30;0.30;;;4.00;99.90;;;;;;5073507;28;20484;-83
2021/12/05 15:44:29;;;;;;;0.30;0.30;;;3.90;99.90;;;;;;5073174;28;20770;-83
2021/12/05 15:47:09;;;;;;;0.30;0.30;;;3.90;99.90;;;;;;5072917;28;20473;-83
2021/12/05 15:49:55;;;;;;;0.30;0.20;;;3.90;99.90;;;;;;5073349;28;20437;-83
2021/12/05 15:52:26;;;;;;;0.30;0.30;;;3.90;99.90;;;;;;5073316;28;20482;-83
2021/12/05 15:54:54;;;;;;;0.33;0.33;;;3.80;99.90;;;;;;5073074;28;20908;-83
2021/12/05 15:57:30;;;;;;;0.30;0.30;;;3.80;99.90;;;;;;5073286;28;20506;-83
2021/12/05 16:00:00;;;;;;;0.30;0.30;;;3.80;99.90;;;;;;5073038;28;20514;-88
2021/12/05 16:02:27;;;;;;;0.50;0.50;;;3.80;99.90;;;;;;5072954;28;20491;-84
2021/12/05 16:04:56;;;;;;;0.30;0.23;;;3.80;99.90;;;;;;5072405;28;20456;-84
2021/12/05 16:07:27;;;;;;;0.30;0.30;;;3.70;99.90;;;;;;5072600;28;20858;-84
2021/12/05 16:10:09;;;;;;;0.30;0.30;;;3.70;99.90;;;;;;5072100;28;20496;-84
2021/12/05 16:12:40;;;;;;;0.30;0.30;;;3.70;99.90;;;;;;5073195;28;20425;-84
2021/12/05 16:15:08;;;;;;;0.30;0.30;;;3.70;99.90;;;;;;5073180;28;20410;-83
2021/12/05 16:17:35;;;;;;;0.30;0.30;;;3.70;99.90;;;;;;5072616;28;20447;-84
2021/12/05 16:20:06;;;;;;;0.30;0.30;;;3.60;99.90;;;;;;5072966;28;20476;-84
2021/12/05 16:22:33;;;;;;;1.67;0.50;;;3.60;99.90;;;;;;5072982;28;20556;-84
2021/12/05 16:25:16;;;;;;;0.30;0.30;;;3.50;99.90;;;;;;5072796;28;20449;-84
2021/12/05 16:27:49;;;;;;;0.97;0.97;;;3.40;99.90;;;;;;5072788;28;21013;-84
2021/12/05 16:30:22;;;;;;;7.63;0.70;;;3.40;99.90;;;;;;5074833;28;20449;-84
2021/12/05 16:32:49;;;;;;;0.83;0.83;;;3.30;99.90;;;;;;5076549;28;20900;-83
2021/12/05 16:35:25;;;;;;;0.30;0.20;;;3.20;99.90;;;;;;5076697;28;20452;-77
2021/12/05 16:37:52;;;;;;;0.30;0.30;;;3.10;99.90;;;;;;5076973;28;20436;-84
2021/12/05 16:40:20;;;;;;;0.30;0.30;;;3.00;99.90;;;;;;5076713;28;20472;-81
2021/12/05 16:42:47;;;;;;;0.30;0.30;;;2.90;99.90;;;;;;5076332;28;20475;-80
2021/12/05 16:45:15;;;;;;;0.30;0.30;;;2.80;99.90;;;;;;5076558;28;20851;-80
2021/12/05 16:47:44;;;;;;;1.03;0.57;;;2.80;99.90;;;;;;5076225;28;20476;-83
2021/12/05 16:50:13;;;;;;;1.23;1.03;;;2.70;99.90;;;;;;5076555;28;20526;-78
2021/12/05 16:52:47;;;;;;;0.53;0.53;;;2.60;99.90;;;;;;5076086;28;20449;-79
2021/12/05 16:55:24;;;;;;;0.77;0.77;;;2.60;99.90;;;;;;5076301;28;20440;-78
2021/12/05 16:57:59;;;;;;;0.80;0.80;;;2.60;99.90;;;;;;5076286;28;20442;-78
2021/12/05 17:00:28;;;;;;;0.30;0.30;;;2.60;99.90;;;;;;5076311;28;20463;-80
2021/12/05 17:02:57;;;;;;;0.30;0.20;;;2.60;99.90;;;;;;5075927;28;20440;-78
2021/12/05 17:05:27;;;;;;;0.30;0.30;;;2.60;99.90;;;;;;5075942;28;20889;-79
2021/12/05 17:08:01;;;;;;;1.10;1.03;;;2.60;99.90;;;;;;5075849;28;20455;-79
2021/12/05 17:10:38;;;;;;;0.30;0.30;;;2.50;99.90;;;;;;5075684;28;20975;-78
2021/12/05 17:13:19;;;;;;;0.30;0.20;;;2.50;99.90;;;;;;5076123;28;20432;-78
2021/12/05 17:15:50;;;;;;;0.30;0.30;;;2.60;99.90;;;;;;5076041;28;20433;-78